createdAt,value
2018-03-14T00:01:04.404Z,21.27
2018-03-14T00:03:31.892Z,21.30
2018-03-14T00:05:59.399Z,20.90
2018-03-14T00:08:26.867Z,21.57
2018-03-14T00:10:54.393Z,21.30
2018-03-14T00:13:21.883Z,18.93
2018-03-14T00:15:49.378Z,19.47
2018-03-14T00:18:16.870Z,18.10
2018-03-14T00:20:44.395Z,18.43
2018-03-14T00:23:11.875Z,17.47
2018-03-14T00:25:39.379Z,17.90
2018-03-14T00:28:06.855Z,17.07
2018-03-14T00:30:34.365Z,16.23
2018-03-14T00:33:01.838Z,16.07
2018-03-14T00:35:29.342Z,15.40
2018-03-14T00:37:56.831Z,14.90
2018-03-14T00:40:24.379Z,15.47
2018-03-14T00:42:51.804Z,14.23
2018-03-14T00:45:19.308Z,13.50
2018-03-14T00:47:46.783Z,14.20
2018-03-14T00:50:14.280Z,13.43
2018-03-14T00:52:41.777Z,14.90
2018-03-14T00:55:09.296Z,13.43
2018-03-14T00:57:36.775Z,12.03
2018-03-14T01:00:04.256Z,11.63
2018-03-14T01:02:31.747Z,11.00
2018-03-14T01:04:59.332Z,11.07
2018-03-14T01:07:26.832Z,12.00
2018-03-14T01:09:54.321Z,10.53
2018-03-14T01:12:21.811Z,9.37
2018-03-14T01:14:49.288Z,10.13
2018-03-14T01:17:16.790Z,9.67
2018-03-14T01:19:44.276Z,10.47
2018-03-14T01:22:11.782Z,10.33
2018-03-14T01:24:39.272Z,9.80
2018-03-14T01:27:06.754Z,9.80
2018-03-14T01:29:34.236Z,10.70
2018-03-14T01:32:01.739Z,9.57
2018-03-14T01:34:29.268Z,10.20
2018-03-14T01:36:56.715Z,11.00
2018-03-14T01:39:24.205Z,11.33
2018-03-14T01:41:51.713Z,10.77
2018-03-14T01:44:19.219Z,10.93
2018-03-14T01:46:46.743Z,10.13
2018-03-14T01:49:14.219Z,9.50
2018-03-14T01:51:41.723Z,10.13
2018-03-14T01:54:09.202Z,11.03
2018-03-14T01:56:36.712Z,11.10
2018-03-14T01:59:04.193Z,11.03
2018-03-14T02:01:32.471Z,11.03
2018-03-14T02:03:59.956Z,10.23
2018-03-14T02:06:27.451Z,11.40
2018-03-14T02:08:54.942Z,12.80
2018-03-14T02:11:22.446Z,11.47
2018-03-14T02:13:49.950Z,12.40
2018-03-14T02:16:17.453Z,12.73
2018-03-14T02:18:44.939Z,11.97
2018-03-14T02:21:12.432Z,12.60
2018-03-14T02:23:39.930Z,13.07
2018-03-14T02:26:07.411Z,13.57
2018-03-14T02:28:34.926Z,13.73
2018-03-14T02:31:02.410Z,14.07
2018-03-14T02:33:30.139Z,13.77
2018-03-14T02:35:57.619Z,14.70
2018-03-14T02:38:25.119Z,14.70
2018-03-14T02:40:52.608Z,14.47
2018-03-14T02:43:20.111Z,15.83
2018-03-14T02:45:47.598Z,16.47
2018-03-14T02:48:15.410Z,16.23
2018-03-14T02:50:42.871Z,15.97
2018-03-14T02:53:10.365Z,17.23
2018-03-14T02:55:37.835Z,17.93
2018-03-14T02:58:05.319Z,16.53
2018-03-14T03:00:32.788Z,18.10
2018-03-14T03:03:00.270Z,17.83
2018-03-14T03:05:27.730Z,18.83
2018-03-14T03:07:55.208Z,18.47
2018-03-14T03:10:22.734Z,18.17
2018-03-14T03:12:50.239Z,19.87
2018-03-14T03:15:17.664Z,19.23
2018-03-14T03:17:45.140Z,17.97
2018-03-14T03:20:12.603Z,20.77
2018-03-14T03:22:40.078Z,19.13
2018-03-14T03:25:07.535Z,19.60
2018-03-14T03:27:35.025Z,20.07
2018-03-14T03:30:02.493Z,21.07
2018-03-14T03:32:29.987Z,19.30
2018-03-14T03:34:57.448Z,20.13
2018-03-14T03:37:24.930Z,19.70
2018-03-14T03:39:52.407Z,17.83
2018-03-14T03:42:19.935Z,17.03
2018-03-14T03:44:47.400Z,16.70
2018-03-14T03:47:14.873Z,18.07
2018-03-14T03:49:42.352Z,19.33
2018-03-14T03:52:09.821Z,18.83
2018-03-14T03:54:37.363Z,18.10
2018-03-14T03:57:04.830Z,17.90
2018-03-14T03:59:32.308Z,25.27
2018-03-14T04:01:59.791Z,26.03
2018-03-14T04:04:27.279Z,27.10
2018-03-14T04:06:54.741Z,23.77
2018-03-14T04:09:22.225Z,24.87
2018-03-14T04:11:49.695Z,23.43
2018-03-14T04:14:17.186Z,24.20
2018-03-14T04:16:44.655Z,21.57
2018-03-14T04:19:12.140Z,22.20
2018-03-14T04:21:39.611Z,23.50
2018-03-14T04:24:07.094Z,22.00
2018-03-14T04:26:34.551Z,22.10
2018-03-14T04:29:02.059Z,23.33
2018-03-14T04:31:29.575Z,22.03
2018-03-14T04:33:57.019Z,22.47
2018-03-14T04:36:24.499Z,21.27
2018-03-14T04:38:51.982Z,22.03
2018-03-14T04:41:19.485Z,21.13
2018-03-14T04:43:46.967Z,19.03
2018-03-14T04:46:14.434Z,22.27
2018-03-14T04:48:41.914Z,21.30
2018-03-14T04:51:09.371Z,22.80
2018-03-14T04:53:36.851Z,25.97
2018-03-14T04:56:04.311Z,25.47
2018-03-14T04:58:31.805Z,25.10
2018-03-14T05:00:59.575Z,23.93
2018-03-14T05:03:27.041Z,23.47
2018-03-14T05:05:54.539Z,23.50
2018-03-14T05:08:22.006Z,24.97
2018-03-14T05:10:49.496Z,26.83
2018-03-14T05:13:16.971Z,26.70
2018-03-14T05:15:44.455Z,26.80
2018-03-14T05:18:11.920Z,28.40
2018-03-14T05:20:39.399Z,26.93
2018-03-14T05:23:06.855Z,28.97
2018-03-14T05:25:34.331Z,29.20
2018-03-14T05:28:02.560Z,29.37
2018-03-14T05:30:30.047Z,31.80
2018-03-14T05:32:57.528Z,31.03
2018-03-14T05:35:25.006Z,30.93
2018-03-14T05:37:52.467Z,30.53
2018-03-14T05:40:19.975Z,30.90
2018-03-14T05:42:47.431Z,33.57
2018-03-14T05:45:14.919Z,30.83
2018-03-14T05:47:42.380Z,32.93
2018-03-14T05:50:09.885Z,33.33
2018-03-14T05:52:37.938Z,36.20
2018-03-14T05:55:05.418Z,33.63
2018-03-14T05:57:32.878Z,33.47
2018-03-14T06:00:00.357Z,32.47
2018-03-14T06:02:27.843Z,34.17
2018-03-14T06:04:55.343Z,36.13
2018-03-14T06:07:22.898Z,39.17
2018-03-14T06:09:50.385Z,40.80
2018-03-14T06:12:17.855Z,38.33
2018-03-14T06:14:45.610Z,39.70
2018-03-14T06:17:13.112Z,41.13
2018-03-14T06:19:40.642Z,40.03
2018-03-14T06:22:08.133Z,39.87
2018-03-14T06:24:35.612Z,39.57
2018-03-14T06:27:03.399Z,38.60
2018-03-14T06:29:30.861Z,38.30
2018-03-14T06:31:58.403Z,39.63
2018-03-14T06:34:25.865Z,38.37
2018-03-14T06:36:53.351Z,38.50
2018-03-14T06:39:20.817Z,38.47
2018-03-14T06:41:48.303Z,38.03
2018-03-14T06:44:15.770Z,35.03
2018-03-14T06:46:43.257Z,36.13
2018-03-14T06:49:10.721Z,38.63
2018-03-14T06:51:38.207Z,38.83
2018-03-14T06:54:05.672Z,38.53
2018-03-14T06:56:33.203Z,36.40
2018-03-14T06:59:12.576Z,35.70
2018-03-14T07:01:51.975Z,33.87
2018-03-14T07:04:31.267Z,33.73
2018-03-14T07:06:58.749Z,32.77
2018-03-14T07:09:26.211Z,30.43
2018-03-14T07:11:53.711Z,30.70
2018-03-14T07:14:21.182Z,30.57
2018-03-14T07:16:48.659Z,28.50
2018-03-14T07:19:16.115Z,29.27
2018-03-14T07:21:43.620Z,28.00
2018-03-14T07:24:11.083Z,28.37
2018-03-14T07:26:38.573Z,28.40
2018-03-14T07:29:06.069Z,29.67
2018-03-14T07:31:33.563Z,28.87
2018-03-14T07:34:01.034Z,29.20
2018-03-14T07:36:28.514Z,29.17
2018-03-14T07:38:55.987Z,30.70
2018-03-14T07:41:23.470Z,29.30
2018-03-14T07:43:50.962Z,31.40
2018-03-14T07:46:18.444Z,29.93
2018-03-14T07:48:45.914Z,29.83
2018-03-14T07:51:13.416Z,28.63
2018-03-14T07:53:40.901Z,28.23
2018-03-14T07:56:08.363Z,28.70
2018-03-14T07:58:35.863Z,29.00
2018-03-14T08:01:04.106Z,28.07
2018-03-14T08:03:38.133Z,27.97
2018-03-14T08:06:05.604Z,29.00
2018-03-14T08:08:33.096Z,27.57
2018-03-14T08:11:00.560Z,28.17
2018-03-14T08:13:28.084Z,28.07
2018-03-14T08:15:55.515Z,28.50
2018-03-14T08:18:23.005Z,27.80
2018-03-14T08:20:50.477Z,26.43
2018-03-14T08:23:17.954Z,24.37
2018-03-14T08:25:45.426Z,26.03
2018-03-14T08:28:12.904Z,24.17
2018-03-14T08:30:40.363Z,23.73
2018-03-14T08:33:07.873Z,23.00
2018-03-14T08:35:35.406Z,22.30
2018-03-14T08:38:02.891Z,23.03
2018-03-14T08:40:30.358Z,21.23
2018-03-14T08:42:57.854Z,22.80
2018-03-14T08:45:25.321Z,22.27
2018-03-14T08:47:52.804Z,22.90
2018-03-14T08:50:20.291Z,22.80
2018-03-14T08:52:47.766Z,21.90
2018-03-14T08:55:15.235Z,22.83
2018-03-14T08:57:42.727Z,23.03
2018-03-14T09:00:10.189Z,22.10
2018-03-14T09:02:37.691Z,21.60
2018-03-14T09:05:05.163Z,22.47
2018-03-14T09:07:32.650Z,25.03
2018-03-14T09:10:00.576Z,21.33
2018-03-14T09:12:28.035Z,22.73
2018-03-14T09:14:55.496Z,21.73
2018-03-14T09:17:22.990Z,21.63
2018-03-14T09:19:50.447Z,23.37
2018-03-14T09:22:17.907Z,23.10
2018-03-14T09:24:45.407Z,22.47
2018-03-14T09:27:12.876Z,21.03
2018-03-14T09:29:40.365Z,22.27
2018-03-14T09:32:07.822Z,22.23
2018-03-14T09:34:35.295Z,20.83
2018-03-14T09:37:02.792Z,19.97
2018-03-14T09:39:30.266Z,20.67
2018-03-14T09:41:57.729Z,19.30
2018-03-14T09:44:25.216Z,18.70
2018-03-14T09:46:52.675Z,17.67
2018-03-14T09:49:20.155Z,18.20
2018-03-14T09:51:47.644Z,18.97
2018-03-14T09:54:15.127Z,19.63
2018-03-14T09:56:42.587Z,19.27
2018-03-14T09:59:10.067Z,19.50
2018-03-14T10:01:37.579Z,19.27
2018-03-14T10:04:05.071Z,20.37
2018-03-14T10:06:32.535Z,20.47
2018-03-14T10:09:00.019Z,18.33
2018-03-14T10:11:27.580Z,20.93
2018-03-14T10:13:55.062Z,19.10
2018-03-14T10:16:22.519Z,16.73
2018-03-14T10:18:51.005Z,16.33
2018-03-14T10:21:18.480Z,18.10
2018-03-14T10:23:45.966Z,19.47
2018-03-14T10:26:13.451Z,17.63
2018-03-14T10:28:40.937Z,18.77
2018-03-14T10:31:08.426Z,19.67
2018-03-14T10:33:35.914Z,19.73
2018-03-14T10:36:03.384Z,19.07
2018-03-14T10:38:30.919Z,18.43
2018-03-14T10:40:58.383Z,18.70
2018-03-14T10:43:25.871Z,18.77
2018-03-14T10:45:53.327Z,17.80
2018-03-14T10:48:20.783Z,18.17
2018-03-14T10:50:48.274Z,18.50
2018-03-14T10:53:15.740Z,16.83
2018-03-14T10:55:43.219Z,17.00
2018-03-14T10:58:10.679Z,17.67
2018-03-14T11:00:43.628Z,16.47
2018-03-14T11:03:16.592Z,17.07
2018-03-14T11:05:44.079Z,16.30
2018-03-14T11:08:11.540Z,17.43
2018-03-14T11:10:39.028Z,16.90
2018-03-14T11:13:06.507Z,15.93
2018-03-14T11:15:34.014Z,15.27
2018-03-14T11:18:01.504Z,15.70
2018-03-14T11:20:28.994Z,15.50
2018-03-14T11:22:56.468Z,14.93
2018-03-14T11:25:23.961Z,15.80
2018-03-14T11:27:51.439Z,13.73
2018-03-14T11:30:18.946Z,13.53
2018-03-14T11:32:46.435Z,13.13
2018-03-14T11:35:13.967Z,13.93
2018-03-14T11:37:41.468Z,12.43
2018-03-14T11:40:08.984Z,12.20
2018-03-14T11:42:36.461Z,13.23
2018-03-14T11:45:03.943Z,12.83
2018-03-14T11:47:31.407Z,11.63
2018-03-14T11:49:58.907Z,12.23
2018-03-14T11:52:26.373Z,12.03
2018-03-14T11:54:53.855Z,13.20
2018-03-14T11:57:21.373Z,12.33
2018-03-14T11:59:48.849Z,10.60
2018-03-14T12:02:16.310Z,11.60
2018-03-14T12:04:43.797Z,11.57
2018-03-14T12:07:11.264Z,10.90
2018-03-14T12:09:38.741Z,11.00
2018-03-14T12:12:06.211Z,10.83
2018-03-14T12:14:33.718Z,11.63
2018-03-14T12:17:01.200Z,11.37
2018-03-14T12:19:28.675Z,9.50
2018-03-14T12:21:56.164Z,10.60
2018-03-14T12:24:23.627Z,11.30
2018-03-14T12:26:51.123Z,10.90
2018-03-14T12:29:18.582Z,10.70
2018-03-14T12:31:46.775Z,9.90
2018-03-14T12:34:14.235Z,10.17
2018-03-14T12:36:41.715Z,10.10
2018-03-14T12:39:09.195Z,10.73
2018-03-14T12:41:36.679Z,10.00
2018-03-14T12:44:04.134Z,9.57
2018-03-14T12:46:31.623Z,9.83
2018-03-14T12:48:59.087Z,9.37
2018-03-14T12:51:26.567Z,8.97
2018-03-14T12:53:54.025Z,8.70
2018-03-14T12:56:21.506Z,8.63
2018-03-14T12:58:48.967Z,8.77
2018-03-14T13:01:16.452Z,9.30
2018-03-14T13:03:43.915Z,8.73
2018-03-14T13:06:11.400Z,8.13
2018-03-14T13:08:38.864Z,8.17
2018-03-14T13:11:06.345Z,7.40
2018-03-14T13:13:33.797Z,7.57
2018-03-14T13:16:01.271Z,8.43
2018-03-14T13:18:28.732Z,7.80
2018-03-14T13:20:56.206Z,7.43
2018-03-14T13:23:23.688Z,6.60
2018-03-14T13:25:51.158Z,6.57
2018-03-14T13:28:18.614Z,6.83
2018-03-14T13:30:46.103Z,7.60
2018-03-14T13:33:13.555Z,7.63
2018-03-14T13:35:41.039Z,7.40
2018-03-14T13:38:08.500Z,7.33
2018-03-14T13:40:36.004Z,6.93
2018-03-14T13:43:03.468Z,6.60
2018-03-14T13:45:30.935Z,6.63
2018-03-14T13:47:58.405Z,5.83
2018-03-14T13:50:25.868Z,6.63
2018-03-14T13:52:53.361Z,5.77
2018-03-14T13:55:20.839Z,6.73
2018-03-14T13:57:48.318Z,6.93
2018-03-14T14:00:15.787Z,7.43
2018-03-14T14:02:43.251Z,6.83
2018-03-14T14:05:10.712Z,6.33
2018-03-14T14:07:38.191Z,7.00
2018-03-14T14:10:05.655Z,7.10
2018-03-14T14:12:33.154Z,6.40
2018-03-14T14:15:00.611Z,6.30
2018-03-14T14:17:28.105Z,6.00
2018-03-14T14:19:55.568Z,6.50
2018-03-14T14:22:23.049Z,6.83
2018-03-14T14:24:50.528Z,6.00
2018-03-14T14:27:18.936Z,6.00
2018-03-14T14:29:46.400Z,5.97
2018-03-14T14:32:13.871Z,6.63
2018-03-14T14:34:41.344Z,6.17
2018-03-14T14:37:08.820Z,7.00
2018-03-14T14:39:36.284Z,7.73
2018-03-14T14:42:03.764Z,6.30
2018-03-14T14:44:31.231Z,5.97
2018-03-14T14:46:59.704Z,6.53
2018-03-14T14:49:27.201Z,6.60
2018-03-14T14:51:54.680Z,6.10
2018-03-14T14:54:22.144Z,6.67
2018-03-14T14:56:49.623Z,6.80
2018-03-14T14:59:17.080Z,6.07
2018-03-14T15:01:44.555Z,5.70
2018-03-14T15:04:12.051Z,6.57
2018-03-14T15:06:39.498Z,6.93
2018-03-14T15:09:06.984Z,6.40
2018-03-14T15:11:34.451Z,6.50
2018-03-14T15:14:01.920Z,6.53
2018-03-14T15:16:29.386Z,5.90
2018-03-14T15:18:56.865Z,6.40
2018-03-14T15:21:24.399Z,6.17
2018-03-14T15:23:51.828Z,5.93
2018-03-14T15:26:19.288Z,5.47
2018-03-14T15:28:47.336Z,5.50
2018-03-14T15:31:14.807Z,6.07
2018-03-14T15:33:42.288Z,6.23
2018-03-14T15:36:09.748Z,6.03
2018-03-14T15:38:37.223Z,5.80
2018-03-14T15:41:04.691Z,6.90
2018-03-14T15:43:32.182Z,6.43
2018-03-14T15:45:59.640Z,6.40
2018-03-14T15:48:27.131Z,6.47
2018-03-14T15:50:54.591Z,5.83
2018-03-14T15:53:22.074Z,5.90
2018-03-14T15:55:49.536Z,5.80
2018-03-14T15:58:17.006Z,5.80
2018-03-14T16:00:44.476Z,6.00
2018-03-14T16:03:11.956Z,6.00
2018-03-14T16:05:39.430Z,6.00
2018-03-14T16:08:07.229Z,5.23
2018-03-14T16:10:34.688Z,4.90
2018-03-14T16:13:02.179Z,5.80
2018-03-14T16:15:29.660Z,6.03
2018-03-14T16:17:57.175Z,6.10
2018-03-14T16:20:24.683Z,6.37
2018-03-14T16:22:52.167Z,6.53
2018-03-14T16:25:19.629Z,5.90
2018-03-14T16:27:47.120Z,5.30
2018-03-14T16:30:14.607Z,5.77
2018-03-14T16:32:42.070Z,6.27
2018-03-14T16:35:09.551Z,6.63
2018-03-14T16:37:37.008Z,6.57
2018-03-14T16:40:04.495Z,6.23
2018-03-14T16:42:31.964Z,7.23
2018-03-14T16:44:59.451Z,6.63
2018-03-14T16:47:26.911Z,7.00
2018-03-14T16:49:54.398Z,7.07
2018-03-14T16:52:21.864Z,7.20
2018-03-14T16:54:49.343Z,6.57
2018-03-14T16:57:16.808Z,6.50
2018-03-14T16:59:44.288Z,6.67
2018-03-14T17:02:11.747Z,7.23
2018-03-14T17:04:39.627Z,6.77
2018-03-14T17:07:07.082Z,6.83
2018-03-14T17:09:34.551Z,7.07
2018-03-14T17:12:02.010Z,6.80
2018-03-14T17:14:30.265Z,7.50
2018-03-14T17:16:57.731Z,7.20
2018-03-14T17:19:25.203Z,6.73
2018-03-14T17:21:52.655Z,6.67
2018-03-14T17:24:20.127Z,6.40
2018-03-14T17:26:47.575Z,7.23
2018-03-14T17:29:15.139Z,7.40
2018-03-14T17:31:42.619Z,6.97
2018-03-14T17:34:10.096Z,7.33
2018-03-14T17:36:37.558Z,6.23
2018-03-14T17:39:05.039Z,6.73
2018-03-14T17:41:32.980Z,7.27
2018-03-14T17:44:00.451Z,6.50
2018-03-14T17:46:27.926Z,6.83
2018-03-14T17:48:55.503Z,7.50
2018-03-14T17:51:22.982Z,7.10
2018-03-14T17:53:50.459Z,6.30
2018-03-14T17:56:17.949Z,6.23
2018-03-14T17:58:45.410Z,5.77
2018-03-14T18:01:12.900Z,5.70
2018-03-14T18:03:40.364Z,6.17
2018-03-14T18:06:07.891Z,6.17
2018-03-14T18:08:35.343Z,6.13
2018-03-14T18:11:02.822Z,6.27
2018-03-14T18:13:30.280Z,6.10
2018-03-14T18:15:57.761Z,5.97
2018-03-14T18:18:25.213Z,5.67
2018-03-14T18:20:52.688Z,6.33
2018-03-14T18:23:20.365Z,5.73
2018-03-14T18:25:47.848Z,5.80
2018-03-14T18:28:15.301Z,5.37
2018-03-14T18:30:42.787Z,5.70
2018-03-14T18:33:10.243Z,5.47
2018-03-14T18:35:37.711Z,5.60
2018-03-14T18:38:05.168Z,5.70
2018-03-14T18:40:32.645Z,5.93
2018-03-14T18:43:00.101Z,5.43
2018-03-14T18:45:27.570Z,5.10
2018-03-14T18:47:55.019Z,5.60
2018-03-14T18:50:22.491Z,5.70
2018-03-14T18:52:49.946Z,5.17
2018-03-14T18:55:17.420Z,4.93
2018-03-14T18:57:44.867Z,4.80
2018-03-14T19:00:12.343Z,4.70
2018-03-14T19:02:39.795Z,4.63
2018-03-14T19:05:07.259Z,4.50
2018-03-14T19:07:34.716Z,4.40
2018-03-14T19:10:02.184Z,4.53
2018-03-14T19:12:29.659Z,4.50
2018-03-14T19:14:57.161Z,4.40
2018-03-14T19:17:24.611Z,4.83
2018-03-14T19:19:52.071Z,4.20
2018-03-14T19:22:19.563Z,4.63
2018-03-14T19:24:47.022Z,4.60
2018-03-14T19:27:14.556Z,4.93
2018-03-14T19:29:42.011Z,4.60
2018-03-14T19:32:09.803Z,4.73
2018-03-14T19:34:37.282Z,4.83
2018-03-14T19:37:04.756Z,5.00
2018-03-14T19:39:32.212Z,5.20
2018-03-14T19:41:59.804Z,5.13
2018-03-14T19:44:27.247Z,5.10
2018-03-14T19:46:54.734Z,5.40
2018-03-14T19:49:22.179Z,4.90
2018-03-14T19:51:49.647Z,5.53
2018-03-14T19:54:17.105Z,5.93
2018-03-14T19:56:45.832Z,5.60
2018-03-14T19:59:13.292Z,4.70
2018-03-14T20:01:40.959Z,5.60
2018-03-14T20:04:14.435Z,5.43
2018-03-14T20:06:41.908Z,5.77
2018-03-14T20:09:14.378Z,5.37
2018-03-14T20:14:48.118Z,5.80
2018-03-14T20:19:53.064Z,5.50
2018-03-14T20:22:27.526Z,5.93
2018-03-14T20:24:54.998Z,5.87
2018-03-14T20:27:25.308Z,6.17
2018-03-14T20:29:53.944Z,6.27
2018-03-14T20:32:24.130Z,5.87
2018-03-14T20:37:32.885Z,5.93
2018-03-14T20:40:00.378Z,6.03
2018-03-14T20:42:29.140Z,5.70
2018-03-14T20:45:01.103Z,6.00
2018-03-14T20:47:29.403Z,5.97
2018-03-14T20:49:59.897Z,6.30
2018-03-14T20:52:29.726Z,6.43
2018-03-14T20:55:01.461Z,6.00
2018-03-14T20:57:28.965Z,6.10
2018-03-14T21:00:00.996Z,6.30
2018-03-14T21:05:03.705Z,6.33
2018-03-14T21:07:32.487Z,6.77
2018-03-14T21:10:05.934Z,6.93
2018-03-14T21:12:33.555Z,7.60
2018-03-14T21:15:01.896Z,7.07
2018-03-14T21:17:33.580Z,7.23
2018-03-14T21:22:36.225Z,7.13
2018-03-14T21:25:04.530Z,7.40
2018-03-14T21:27:33.175Z,6.80
2018-03-14T21:30:03.035Z,7.23
2018-03-14T21:32:35.332Z,6.60
2018-03-14T21:37:37.206Z,8.03
2018-03-14T21:40:04.840Z,7.67
2018-03-14T21:42:32.340Z,7.37
2018-03-14T21:44:59.842Z,8.57
2018-03-14T21:47:27.327Z,8.10
2018-03-14T21:49:54.800Z,8.03
2018-03-14T21:52:22.312Z,8.57
2018-03-14T21:54:49.783Z,8.13
2018-03-14T21:57:18.679Z,8.17
2018-03-14T21:59:46.138Z,9.03
2018-03-14T22:02:13.657Z,8.90
2018-03-14T22:04:41.093Z,9.67
2018-03-14T22:07:08.551Z,9.43
2018-03-14T22:09:36.031Z,10.20
2018-03-14T22:12:03.513Z,9.93
2018-03-14T22:14:31.116Z,10.07
2018-03-14T22:16:58.491Z,9.80
2018-03-14T22:19:25.977Z,10.40
2018-03-14T22:21:53.443Z,10.80
2018-03-14T22:24:20.932Z,11.17
2018-03-14T22:26:48.411Z,11.07
2018-03-14T22:29:15.892Z,12.20
2018-03-14T22:31:43.359Z,11.90
2018-03-14T22:34:10.850Z,11.67
2018-03-14T22:36:38.306Z,12.73
2018-03-14T22:39:05.788Z,12.17
2018-03-14T22:41:33.254Z,12.53
2018-03-14T22:44:00.735Z,12.63
2018-03-14T22:46:28.202Z,13.10
2018-03-14T22:48:55.690Z,13.60
2018-03-14T22:51:23.151Z,13.67
2018-03-14T22:53:50.631Z,13.83
2018-03-14T22:56:18.099Z,14.43
2018-03-14T22:58:45.605Z,13.93
2018-03-14T23:01:13.068Z,14.30
2018-03-14T23:03:40.550Z,14.90
2018-03-14T23:06:08.015Z,15.33
2018-03-14T23:08:35.514Z,15.03
2018-03-14T23:11:02.975Z,14.63
2018-03-14T23:13:30.454Z,14.20
2018-03-14T23:15:57.916Z,15.00
2018-03-14T23:18:25.397Z,15.53
2018-03-14T23:20:52.861Z,15.63
2018-03-14T23:23:20.324Z,15.17
2018-03-14T23:25:47.803Z,14.77
2018-03-14T23:28:15.267Z,14.40
2018-03-14T23:30:42.748Z,14.93
2018-03-14T23:33:10.203Z,14.70
2018-03-14T23:35:37.698Z,14.63
2018-03-14T23:38:05.147Z,14.90
2018-03-14T23:40:32.628Z,15.40
2018-03-14T23:43:00.108Z,16.10
2018-03-14T23:45:27.601Z,14.77
2018-03-14T23:47:55.057Z,15.03
2018-03-14T23:50:22.564Z,15.97
2018-03-14T23:52:50.029Z,14.43
2018-03-14T23:55:17.512Z,15.63
2018-03-14T23:57:44.972Z,14.87
